sensor_id;sensor_type;location;lat;lon;timestamp;pressure;altitude;pressure_sealevel;temperature;humidity
10462;BME280;5278;42.656;23.374;2022-11-18T00:00:53;93627.72;;;11.04;100.00
10462;BME280;5278;42.656;23.374;2022-11-18T00:03:20;93624.94;;;10.99;100.00
10462;BME280;5278;42.656;23.374;2022-11-18T00:05:56;93633.13;;;11.03;100.00
10462;BME280;5278;42.656;23.374;2022-11-18T00:08:23;93634.13;;;11.08;100.00
10462;BME280;5278;42.656;23.374;2022-11-18T00:10:51;93628.72;;;11.10;100.00
10462;BME280;5278;42.656;23.374;2022-11-18T00:13:18;93634.13;;;11.08;100.00
10462;BME280;5278;42.656;23.374;2022-11-18T00:16:04;93624.34;;;11.04;100.00
10462;BME280;5278;42.656;23.374;2022-11-18T00:18:32;93626.13;;;11.10;100.00
10462;BME280;5278;42.656;23.374;2022-11-18T00:21:05;93632.72;;;11.06;100.00
10462;BME280;5278;42.656;23.374;2022-11-18T00:23:33;93626.94;;;11.10;100.00
10462;BME280;5278;42.656;23.374;2022-11-18T00:26:03;93632.09;;;11.17;100.00
10462;BME280;5278;42.656;23.374;2022-11-18T00:28:30;93617.13;;;11.12;100.00
10462;BME280;5278;42.656;23.374;2022-11-18T00:31:01;93621.50;;;11.12;100.00
10462;BME280;5278;42.656;23.374;2022-11-18T00:33:29;93624.53;;;11.09;100.00
10462;BME280;5278;42.656;23.374;2022-11-18T00:35:57;93621.13;;;11.08;100.00
10462;BME280;5278;42.656;23.374;2022-11-18T00:38:25;93624.94;;;10.99;100.00
10462;BME280;5278;42.656;23.374;2022-11-18T00:40:59;93617.72;;;11.01;100.00
10462;BME280;5278;42.656;23.374;2022-11-18T00:43:26;93624.91;;;11.06;100.00
10462;BME280;5278;42.656;23.374;2022-11-18T00:45:52;93615.72;;;11.03;100.00
10462;BME280;5278;42.656;23.374;2022-11-18T00:48:19;93615.72;;;11.03;100.00
10462;BME280;5278;42.656;23.374;2022-11-18T00:50:47;93623.94;;;11.00;100.00
10462;BME280;5278;42.656;23.374;2022-11-18T00:53:14;93620.75;;;10.98;100.00
10462;BME280;5278;42.656;23.374;2022-11-18T00:55:43;93612.13;;;10.91;100.00
10462;BME280;5278;42.656;23.374;2022-11-18T00:58:10;93620.97;;;10.90;100.00
10462;BME280;5278;42.656;23.374;2022-11-18T01:00:40;93625.97;;;10.85;100.00
10462;BME280;5278;42.656;23.374;2022-11-18T01:03:08;93622.56;;;10.85;100.00
10462;BME280;5278;42.656;23.374;2022-11-18T01:05:35;93613.16;;;10.77;100.00
10462;BME280;5278;42.656;23.374;2022-11-18T01:08:02;93613.94;;;10.71;100.00
10462;BME280;5278;42.656;23.374;2022-11-18T01:10:29;93619.34;;;10.69;100.00
10462;BME280;5278;42.656;23.374;2022-11-18T01:12:57;93628.53;;;10.59;100.00
10462;BME280;5278;42.656;23.374;2022-11-18T01:15:46;93619.94;;;10.58;100.00
10462;BME280;5278;42.656;23.374;2022-11-18T01:18:13;93610.56;;;10.51;100.00
10462;BME280;5278;42.656;23.374;2022-11-18T01:20:40;93636.31;;;10.52;100.00
10462;BME280;5278;42.656;23.374;2022-11-18T01:23:07;93620.16;;;10.50;100.00
10462;BME280;5278;42.656;23.374;2022-11-18T01:25:34;93622.53;;;10.45;100.00
10462;BME280;5278;42.656;23.374;2022-11-18T01:28:03;93614.34;;;10.48;100.00
10462;BME280;5278;42.656;23.374;2022-11-18T01:30:32;93622.13;;;10.42;100.00
10462;BME280;5278;42.656;23.374;2022-11-18T01:32:59;93621.31;;;10.41;100.00
10462;BME280;5278;42.656;23.374;2022-11-18T01:35:26;93621.75;;;10.45;100.00
10462;BME280;5278;42.656;23.374;2022-11-18T01:37:53;93628.91;;;10.43;100.00
10462;BME280;5278;42.656;23.374;2022-11-18T01:40:20;93624.50;;;10.36;100.00
10462;BME280;5278;42.656;23.374;2022-11-18T01:42:47;93626.31;;;10.29;100.00
10462;BME280;5278;42.656;23.374;2022-11-18T01:45:32;93627.69;;;10.19;100.00
10462;BME280;5278;42.656;23.374;2022-11-18T01:48:03;93628.88;;;10.16;100.00
10462;BME280;5278;42.656;23.374;2022-11-18T01:50:35;93620.84;;;10.11;100.00
10462;BME280;5278;42.656;23.374;2022-11-18T01:53:07;93620.03;;;9.98;100.00
10462;BME280;5278;42.656;23.374;2022-11-18T01:55:37;93628.38;;;9.93;100.00
10462;BME280;5278;42.656;23.374;2022-11-18T01:58:10;93622.41;;;9.86;100.00
10462;BME280;5278;42.656;23.374;2022-11-18T02:00:40;93622.34;;;9.73;100.00
10462;BME280;5278;42.656;23.374;2022-11-18T02:03:07;93624.50;;;9.63;100.00
10462;BME280;5278;42.656;23.374;2022-11-18T02:05:34;93637.22;;;9.58;100.00
10462;BME280;5278;42.656;23.374;2022-11-18T02:08:02;93619.84;;;9.51;100.00
10462;BME280;5278;42.656;23.374;2022-11-18T02:10:32;93636.41;;;9.50;100.00
10462;BME280;5278;42.656;23.374;2022-11-18T02:12:59;93622.66;;;9.50;100.00
10462;BME280;5278;42.656;23.374;2022-11-18T02:15:37;93625.03;;;9.51;100.00
10462;BME280;5278;42.656;23.374;2022-11-18T02:18:14;93625.03;;;9.51;100.00
10462;BME280;5278;42.656;23.374;2022-11-18T02:20:46;93623.81;;;9.47;100.00
10462;BME280;5278;42.656;23.374;2022-11-18T02:29:41;93626.44;;;9.54;100.00
10462;BME280;5278;42.656;23.374;2022-11-18T02:32:13;93627.25;;;9.55;100.00
10462;BME280;5278;42.656;23.374;2022-11-18T02:34:47;93619.09;;;9.58;100.00
10462;BME280;5278;42.656;23.374;2022-11-18T02:37:21;93629.03;;;9.54;100.00
10462;BME280;5278;42.656;23.374;2022-11-18T02:39:54;93617.47;;;9.50;100.00
10462;BME280;5278;42.656;23.374;2022-11-18T02:42:25;93627.44;;;9.53;100.00
10462;BME280;5278;42.656;23.374;2022-11-18T02:45:00;93622.66;;;9.57;100.00
10462;BME280;5278;42.656;23.374;2022-11-18T02:47:30;93616.13;;;9.61;100.00
10462;BME280;5278;42.656;23.374;2022-11-18T02:50:01;93617.28;;;9.58;100.00
10462;BME280;5278;42.656;23.374;2022-11-18T02:52:31;93614.50;;;9.60;100.00
10462;BME280;5278;42.656;23.374;2022-11-18T02:54:59;93619.91;;;9.65;100.00
10462;BME280;5278;42.656;23.374;2022-11-18T02:57:29;93613.94;;;9.64;100.00
10462;BME280;5278;42.656;23.374;2022-11-18T02:59:58;93608.75;;;9.64;100.00
10462;BME280;5278;42.656;23.374;2022-11-18T03:02:25;93625.47;;;9.62;100.00
10462;BME280;5278;42.656;23.374;2022-11-18T03:04:56;93613.31;;;9.62;100.00
10462;BME280;5278;42.656;23.374;2022-11-18T03:07:27;93623.47;;;9.50;100.00
10462;BME280;5278;42.656;23.374;2022-11-18T03:09:56;93629.00;;;9.41;100.00
10462;BME280;5278;42.656;23.374;2022-11-18T03:12:30;93627.41;;;9.46;100.00
10462;BME280;5278;42.656;23.374;2022-11-18T03:15:07;93624.38;;;9.36;100.00
10462;BME280;5278;42.656;23.374;2022-11-18T03:17:45;93638.47;;;9.27;100.00
10462;BME280;5278;42.656;23.374;2022-11-18T03:20:19;93637.66;;;9.27;100.00
10462;BME280;5278;42.656;23.374;2022-11-18T03:22:52;93631.72;;;9.26;100.00
10462;BME280;5278;42.656;23.374;2022-11-18T03:25:27;93622.56;;;9.30;100.00
10462;BME280;5278;42.656;23.374;2022-11-18T03:28:00;93614.78;;;9.30;100.00
10462;BME280;5278;42.656;23.374;2022-11-18T03:30:33;93615.22;;;9.40;100.00
10462;BME280;5278;42.656;23.374;2022-11-18T03:33:04;93615.81;;;9.36;100.00
10462;BME280;5278;42.656;23.374;2022-11-18T03:35:36;93609.03;;;9.41;100.00
10462;BME280;5278;42.656;23.374;2022-11-18T03:38:08;93618.81;;;9.39;100.00
10462;BME280;5278;42.656;23.374;2022-11-18T03:40:38;93619.63;;;9.40;100.00
10462;BME280;5278;42.656;23.374;2022-11-18T03:43:10;93619.63;;;9.46;100.00
10462;BME280;5278;42.656;23.374;2022-11-18T03:45:42;93619.84;;;9.45;100.00
10462;BME280;5278;42.656;23.374;2022-11-18T03:48:14;93611.09;;;9.52;100.00
10462;BME280;5278;42.656;23.374;2022-11-18T03:50:44;93608.53;;;9.59;100.00
10462;BME280;5278;42.656;23.374;2022-11-18T03:53:13;93598.75;;;9.55;100.00
10462;BME280;5278;42.656;23.374;2022-11-18T03:55:44;93619.63;;;9.46;100.00
10462;BME280;5278;42.656;23.374;2022-11-18T03:58:17;93603.47;;;9.44;100.00
10462;BME280;5278;42.656;23.374;2022-11-18T04:00:51;93611.31;;;9.51;100.00
10462;BME280;5278;42.656;23.374;2022-11-18T04:03:20;93592.53;;;9.49;100.00
10462;BME280;5278;42.656;23.374;2022-11-18T04:05:51;93598.75;;;9.55;100.00
10462;BME280;5278;42.656;23.374;2022-11-18T04:08:26;93597.91;;;9.47;100.00
10462;BME280;5278;42.656;23.374;2022-11-18T04:11:00;93602.09;;;9.48;100.00
10462;BME280;5278;42.656;23.374;2022-11-18T04:13:32;93596.50;;;9.51;100.00
10462;BME280;5278;42.656;23.374;2022-11-18T04:16:02;93601.47;;;9.46;100.00
10462;BME280;5278;42.656;23.374;2022-11-18T04:18:32;93610.84;;;9.47;100.00
10462;BME280;5278;42.656;23.374;2022-11-18T04:20:59;93606.06;;;9.44;100.00
10462;BME280;5278;42.656;23.374;2022-11-18T04:23:26;93608.56;;;9.25;100.00
10462;BME280;5278;42.656;23.374;2022-11-18T04:25:53;93616.94;;;9.27;100.00
10462;BME280;5278;42.656;23.374;2022-11-18T04:28:20;93595.56;;;9.18;100.00
10462;BME280;5278;42.656;23.374;2022-11-18T04:30:47;93627.19;;;9.07;100.00
10462;BME280;5278;42.656;23.374;2022-11-18T04:33:16;93609.50;;;9.11;100.00
10462;BME280;5278;42.656;23.374;2022-11-18T04:35:45;93621.59;;;9.03;100.00
10462;BME280;5278;42.656;23.374;2022-11-18T04:38:12;93615.03;;;9.01;100.00
10462;BME280;5278;42.656;23.374;2022-11-18T04:40:39;93631.91;;;8.97;100.00
10462;BME280;5278;42.656;23.374;2022-11-18T04:43:06;93620.56;;;8.98;100.00
10462;BME280;5278;42.656;23.374;2022-11-18T04:45:33;93621.13;;;8.93;100.00
10462;BME280;5278;42.656;23.374;2022-11-18T04:48:00;93626.88;;;8.89;100.00
10462;BME280;5278;42.656;23.374;2022-11-18T04:50:28;93620.09;;;8.88;100.00
10462;BME280;5278;42.656;23.374;2022-11-18T04:52:55;93638.56;;;8.78;100.00
10462;BME280;5278;42.656;23.374;2022-11-18T04:55:22;93627.44;;;8.84;100.00
10462;BME280;5278;42.656;23.374;2022-11-18T04:57:51;93634.97;;;8.79;100.00
10462;BME280;5278;42.656;23.374;2022-11-18T05:00:18;93641.56;;;8.82;100.00
10462;BME280;5278;42.656;23.374;2022-11-18T05:02:47;93633.44;;;8.85;100.00
10462;BME280;5278;42.656;23.374;2022-11-18T05:05:14;93626.69;;;8.90;100.00
10462;BME280;5278;42.656;23.374;2022-11-18T05:07:43;93619.53;;;8.92;100.00
10462;BME280;5278;42.656;23.374;2022-11-18T05:10:10;93624.81;;;9.12;100.00
10462;BME280;5278;42.656;23.374;2022-11-18T05:12:37;93559.50;;;8.82;100.00
10462;BME280;5278;42.656;23.374;2022-11-18T05:15:14;93626.72;;;9.25;100.00
10462;BME280;5278;42.656;23.374;2022-11-18T05:17:41;93631.16;;;9.37;100.00
10462;BME280;5278;42.656;23.374;2022-11-18T05:20:09;93638.16;;;9.43;100.00
10462;BME280;5278;42.656;23.374;2022-11-18T05:22:37;93634.19;;;9.47;100.00
10462;BME280;5278;42.656;23.374;2022-11-18T05:25:06;93631.47;;;9.56;100.00
10462;BME280;5278;42.656;23.374;2022-11-18T05:27:33;93621.81;;;9.43;100.00
10462;BME280;5278;42.656;23.374;2022-11-18T05:30:00;93601.47;;;9.46;100.00
10462;BME280;5278;42.656;23.374;2022-11-18T05:32:27;93636.88;;;9.61;100.00
10462;BME280;5278;42.656;23.374;2022-11-18T05:34:54;93639.06;;;9.64;100.00
10462;BME280;5278;42.656;23.374;2022-11-18T05:37:21;93633.47;;;9.67;100.00
10462;BME280;5278;42.656;23.374;2022-11-18T05:39:48;93640.66;;;9.65;100.00
10462;BME280;5278;42.656;23.374;2022-11-18T05:42:16;93634.50;;;9.66;100.00
10462;BME280;5278;42.656;23.374;2022-11-18T05:45:01;93642.47;;;9.64;100.00
10462;BME280;5278;42.656;23.374;2022-11-18T05:47:27;93570.69;;;9.24;100.00
10462;BME280;5278;42.656;23.374;2022-11-18T05:50:15;93629.97;;;9.81;100.00
10462;BME280;5278;42.656;23.374;2022-11-18T05:52:42;93623.38;;;9.85;100.00
10462;BME280;5278;42.656;23.374;2022-11-18T05:55:09;93629.78;;;9.89;100.00
10462;BME280;5278;42.656;23.374;2022-11-18T05:57:40;93629.59;;;9.90;100.00
10462;BME280;5278;42.656;23.374;2022-11-18T06:00:08;93630.78;;;9.94;100.00
10462;BME280;5278;42.656;23.374;2022-11-18T06:02:34;93630.22;;;9.99;100.00
10462;BME280;5278;42.656;23.374;2022-11-18T06:05:02;93615.03;;;10.03;100.00
10462;BME280;5278;42.656;23.374;2022-11-18T06:07:34;93633.28;;;10.16;100.00
10462;BME280;5278;42.656;23.374;2022-11-18T06:10:04;93636.31;;;10.26;100.00
10462;BME280;5278;42.656;23.374;2022-11-18T06:12:33;93627.91;;;10.30;100.00
10462;BME280;5278;42.656;23.374;2022-11-18T06:15:06;93632.72;;;10.33;100.00
10462;BME280;5278;42.656;23.374;2022-11-18T06:17:38;93633.31;;;10.35;100.00
10462;BME280;5278;42.656;23.374;2022-11-18T06:20:09;93622.34;;;10.40;100.00
10462;BME280;5278;42.656;23.374;2022-11-18T06:22:37;93600.56;;;10.28;100.00
10462;BME280;5278;42.656;23.374;2022-11-18T06:25:04;93631.69;;;10.28;100.00
10462;BME280;5278;42.656;23.374;2022-11-18T06:27:31;93627.31;;;10.35;100.00
10462;BME280;5278;42.656;23.374;2022-11-18T06:30:02;93611.69;;;10.15;100.00
10462;BME280;5278;42.656;23.374;2022-11-18T06:32:30;93618.88;;;10.13;100.00
10462;BME280;5278;42.656;23.374;2022-11-18T06:34:59;93620.50;;;10.27;100.00
10462;BME280;5278;42.656;23.374;2022-11-18T06:37:26;93622.13;;;10.35;100.00
10462;BME280;5278;42.656;23.374;2022-11-18T06:39:53;93612.94;;;10.39;100.00
10462;BME280;5278;42.656;23.374;2022-11-18T06:42:20;93620.56;;;10.41;100.00
10462;BME280;5278;42.656;23.374;2022-11-18T06:45:02;93603.38;;;10.53;100.00
10462;BME280;5278;42.656;23.374;2022-11-18T06:47:30;93617.75;;;10.62;100.00
10462;BME280;5278;42.656;23.374;2022-11-18T06:49:55;93623.34;;;10.72;100.00
10462;BME280;5278;42.656;23.374;2022-11-18T06:52:22;93611.75;;;10.81;100.00
10462;BME280;5278;42.656;23.374;2022-11-18T06:54:49;93614.72;;;10.91;100.00
10462;BME280;5278;42.656;23.374;2022-11-18T06:57:16;93620.53;;;10.93;100.00
10462;BME280;5278;42.656;23.374;2022-11-18T06:59:43;93629.75;;;10.89;100.00
10462;BME280;5278;42.656;23.374;2022-11-18T07:02:12;93626.94;;;10.91;100.00
10462;BME280;5278;42.656;23.374;2022-11-18T07:04:40;93605.75;;;11.00;100.00
10462;BME280;5278;42.656;23.374;2022-11-18T07:07:07;93597.16;;;10.87;100.00
10462;BME280;5278;42.656;23.374;2022-11-18T07:09:34;93623.53;;;11.10;100.00
10462;BME280;5278;42.656;23.374;2022-11-18T07:12:02;93615.88;;;11.21;100.00
10462;BME280;5278;42.656;23.374;2022-11-18T07:14:31;93574.72;;;11.12;100.00
10462;BME280;5278;42.656;23.374;2022-11-18T07:16:58;93623.03;;;11.52;100.00
10462;BME280;5278;42.656;23.374;2022-11-18T07:19:26;93609.19;;;11.65;100.00
10462;BME280;5278;42.656;23.374;2022-11-18T07:21:53;93596.56;;;11.75;100.00
10462;BME280;5278;42.656;23.374;2022-11-18T07:24:21;93592.22;;;12.00;100.00
10462;BME280;5278;42.656;23.374;2022-11-18T07:26:47;93587.06;;;11.94;100.00
10462;BME280;5278;42.656;23.374;2022-11-18T07:29:14;93597.03;;;12.03;100.00
10462;BME280;5278;42.656;23.374;2022-11-18T07:31:41;93580.94;;;12.13;100.00
10462;BME280;5278;42.656;23.374;2022-11-18T07:34:08;93566.88;;;12.45;100.00
10462;BME280;5278;42.656;23.374;2022-11-18T07:36:36;93581.69;;;12.76;100.00
10462;BME280;5278;42.656;23.374;2022-11-18T07:39:05;93583.44;;;12.82;100.00
10462;BME280;5278;42.656;23.374;2022-11-18T07:41:32;93574.13;;;12.68;100.00
10462;BME280;5278;42.656;23.374;2022-11-18T07:44:01;93562.53;;;12.39;100.00
10462;BME280;5278;42.656;23.374;2022-11-18T07:46:29;93577.22;;;12.34;100.00
10462;BME280;5278;42.656;23.374;2022-11-18T07:48:58;93592.59;;;12.35;100.00
10462;BME280;5278;42.656;23.374;2022-11-18T07:51:27;93577.94;;;12.41;100.00
10462;BME280;5278;42.656;23.374;2022-11-18T07:53:56;93578.09;;;12.46;100.00
10462;BME280;5278;42.656;23.374;2022-11-18T07:56:23;93584.41;;;12.32;100.00
10462;BME280;5278;42.656;23.374;2022-11-18T07:58:51;93597.59;;;12.37;100.00
10462;BME280;5278;42.656;23.374;2022-11-18T08:01:20;93603.16;;;12.47;100.00
10462;BME280;5278;42.656;23.374;2022-11-18T08:03:47;93607.53;;;12.53;100.00
10462;BME280;5278;42.656;23.374;2022-11-18T08:06:16;93599.91;;;12.76;100.00
10462;BME280;5278;42.656;23.374;2022-11-18T08:08:44;93599.72;;;12.78;98.88
10462;BME280;5278;42.656;23.374;2022-11-18T08:11:15;93611.34;;;12.75;99.76
10462;BME280;5278;42.656;23.374;2022-11-18T08:13:42;93623.38;;;12.76;99.60
10462;BME280;5278;42.656;23.374;2022-11-18T08:16:12;93642.38;;;12.83;99.69
10462;BME280;5278;42.656;23.374;2022-11-18T08:18:41;93629.34;;;12.83;99.06
10462;BME280;5278;42.656;23.374;2022-11-18T08:21:08;93614.19;;;12.99;97.78
10462;BME280;5278;42.656;23.374;2022-11-18T08:23:35;93601.00;;;12.93;97.95
10462;BME280;5278;42.656;23.374;2022-11-18T08:26:03;93606.53;;;13.04;97.50
10462;BME280;5278;42.656;23.374;2022-11-18T08:28:32;93598.09;;;13.26;97.15
10462;BME280;5278;42.656;23.374;2022-11-18T08:31:00;93594.94;;;13.91;94.80
10462;BME280;5278;42.656;23.374;2022-11-18T08:33:34;93593.75;;;14.53;90.82
10462;BME280;5278;42.656;23.374;2022-11-18T08:36:05;93561.75;;;15.04;88.08
10462;BME280;5278;42.656;23.374;2022-11-18T08:38:32;93579.28;;;16.18;85.89
10462;BME280;5278;42.656;23.374;2022-11-18T08:41:00;93589.13;;;16.56;81.74
10462;BME280;5278;42.656;23.374;2022-11-18T08:43:27;93552.16;;;16.58;80.68
10462;BME280;5278;42.656;23.374;2022-11-18T08:45:56;93556.78;;;17.17;79.29
10462;BME280;5278;42.656;23.374;2022-11-18T08:48:23;93547.66;;;17.42;76.20
10462;BME280;5278;42.656;23.374;2022-11-18T08:50:50;93543.63;;;17.56;75.02
10462;BME280;5278;42.656;23.374;2022-11-18T08:53:17;93545.63;;;17.27;74.78
10462;BME280;5278;42.656;23.374;2022-11-18T08:55:44;93525.56;;;16.83;77.07
10462;BME280;5278;42.656;23.374;2022-11-18T08:58:11;93516.47;;;16.57;78.37
10462;BME280;5278;42.656;23.374;2022-11-18T09:00:38;93516.91;;;16.20;79.39
10462;BME280;5278;42.656;23.374;2022-11-18T09:03:06;93518.09;;;15.84;81.60
10462;BME280;5278;42.656;23.374;2022-11-18T09:05:33;93504.19;;;15.67;83.26
10462;BME280;5278;42.656;23.374;2022-11-18T09:08:00;93492.72;;;15.45;84.02
10462;BME280;5278;42.656;23.374;2022-11-18T09:10:27;93500.63;;;15.22;84.86
10462;BME280;5278;42.656;23.374;2022-11-18T09:12:54;93489.03;;;15.06;86.07
10462;BME280;5278;42.656;23.374;2022-11-18T09:15:21;93478.03;;;14.92;86.79
10462;BME280;5278;42.656;23.374;2022-11-18T09:17:48;93485.56;;;14.89;87.47
10462;BME280;5278;42.656;23.374;2022-11-18T09:20:17;93501.00;;;14.67;88.59
10462;BME280;5278;42.656;23.374;2022-11-18T09:22:44;93509.97;;;14.59;88.76
10462;BME280;5278;42.656;23.374;2022-11-18T09:25:11;93481.78;;;14.38;89.30
10462;BME280;5278;42.656;23.374;2022-11-18T09:27:38;93479.56;;;14.12;90.57
10462;BME280;5278;42.656;23.374;2022-11-18T09:30:06;93493.25;;;13.96;91.19
10462;BME280;5278;42.656;23.374;2022-11-18T09:32:34;93498.06;;;13.69;92.58
10462;BME280;5278;42.656;23.374;2022-11-18T09:35:01;93497.00;;;13.58;94.06
10462;BME280;5278;42.656;23.374;2022-11-18T09:37:29;93499.59;;;13.40;94.74
10462;BME280;5278;42.656;23.374;2022-11-18T09:39:56;93489.69;;;13.30;95.57
10462;BME280;5278;42.656;23.374;2022-11-18T09:42:34;93473.34;;;13.23;95.73
10462;BME280;5278;42.656;23.374;2022-11-18T09:45:16;93481.44;;;13.15;96.65
10462;BME280;5278;42.656;23.374;2022-11-18T09:47:47;93452.81;;;13.27;97.00
10462;BME280;5278;42.656;23.374;2022-11-18T09:50:17;93443.16;;;13.46;95.62
10462;BME280;5278;42.656;23.374;2022-11-18T09:52:52;93431.72;;;13.88;94.64
10462;BME280;5278;42.656;23.374;2022-11-18T09:55:22;93432.41;;;15.52;88.48
10462;BME280;5278;42.656;23.374;2022-11-18T09:57:50;93429.38;;;17.58;78.90
10462;BME280;5278;42.656;23.374;2022-11-18T10:00:21;93419.84;;;19.12;71.72
10462;BME280;5278;42.656;23.374;2022-11-18T10:02:57;93405.34;;;19.87;66.04
10462;BME280;5278;42.656;23.374;2022-11-18T10:05:27;93411.16;;;19.94;63.59
10462;BME280;5278;42.656;23.374;2022-11-18T10:08:14;93416.13;;;19.75;64.46
10462;BME280;5278;42.656;23.374;2022-11-18T10:10:52;93431.97;;;19.85;62.71
10462;BME280;5278;42.656;23.374;2022-11-18T10:13:30;93420.34;;;19.09;63.74
10462;BME280;5278;42.656;23.374;2022-11-18T10:16:04;93433.72;;;18.55;66.93
10462;BME280;5278;42.656;23.374;2022-11-18T10:18:39;93430.91;;;18.35;68.43
10462;BME280;5278;42.656;23.374;2022-11-18T10:21:16;93424.00;;;18.56;67.98
10462;BME280;5278;42.656;23.374;2022-11-18T10:23:51;93417.91;;;18.92;65.72
10462;BME280;5278;42.656;23.374;2022-11-18T10:26:31;93402.63;;;18.89;65.86
10462;BME280;5278;42.656;23.374;2022-11-18T10:28:59;93391.78;;;19.38;66.04
10462;BME280;5278;42.656;23.374;2022-11-18T10:31:26;93382.19;;;20.34;62.17
10462;BME280;5278;42.656;23.374;2022-11-18T10:33:58;93369.13;;;20.93;58.16
10462;BME280;5278;42.656;23.374;2022-11-18T10:36:27;93362.38;;;21.41;56.52
10462;BME280;5278;42.656;23.374;2022-11-18T10:39:10;93371.53;;;21.59;56.16
10462;BME280;5278;42.656;23.374;2022-11-18T10:41:41;93359.66;;;21.57;56.69
10462;BME280;5278;42.656;23.374;2022-11-18T10:44:33;93348.75;;;21.04;58.31
10462;BME280;5278;42.656;23.374;2022-11-18T10:47:24;93338.63;;;20.52;60.22
10462;BME280;5278;42.656;23.374;2022-11-18T10:49:52;93355.78;;;19.89;61.35
10462;BME280;5278;42.656;23.374;2022-11-18T10:52:20;93348.59;;;19.49;62.99
10462;BME280;5278;42.656;23.374;2022-11-18T10:57:43;93348.75;;;18.55;67.68
10462;BME280;5278;42.656;23.374;2022-11-18T11:00:32;93343.34;;;17.97;68.56
10462;BME280;5278;42.656;23.374;2022-11-18T11:02:59;93338.38;;;17.69;70.67
10462;BME280;5278;42.656;23.374;2022-11-18T11:05:26;93345.06;;;17.82;70.68
10462;BME280;5278;42.656;23.374;2022-11-18T11:08:00;93337.41;;;17.80;71.11
10462;BME280;5278;42.656;23.374;2022-11-18T11:10:28;93341.28;;;17.68;70.88
10462;BME280;5278;42.656;23.374;2022-11-18T11:12:59;93340.16;;;17.37;70.60
10462;BME280;5278;42.656;23.374;2022-11-18T11:15:33;93342.38;;;17.23;71.93
10462;BME280;5278;42.656;23.374;2022-11-18T11:18:05;93343.44;;;17.00;72.01
10462;BME280;5278;42.656;23.374;2022-11-18T11:20:52;93353.50;;;17.08;73.96
10462;BME280;5278;42.656;23.374;2022-11-18T11:23:18;93332.19;;;17.05;75.58
10462;BME280;5278;42.656;23.374;2022-11-18T11:25:50;93317.25;;;17.05;75.62
10462;BME280;5278;42.656;23.374;2022-11-18T11:28:27;93332.13;;;17.00;75.30
10462;BME280;5278;42.656;23.374;2022-11-18T11:31:09;93323.56;;;16.61;75.98
10462;BME280;5278;42.656;23.374;2022-11-18T11:33:44;93301.31;;;16.47;76.47
10462;BME280;5278;42.656;23.374;2022-11-18T11:36:22;93324.88;;;16.25;76.96
10462;BME280;5278;42.656;23.374;2022-11-18T11:39:00;93312.56;;;16.25;77.79
10462;BME280;5278;42.656;23.374;2022-11-18T11:41:29;93316.47;;;16.23;79.07
10462;BME280;5278;42.656;23.374;2022-11-18T11:44:12;93310.06;;;16.14;80.20
10462;BME280;5278;42.656;23.374;2022-11-18T11:46:51;93319.34;;;16.21;80.35
10462;BME280;5278;42.656;23.374;2022-11-18T11:49:47;93305.94;;;16.01;79.07
10462;BME280;5278;42.656;23.374;2022-11-18T11:52:26;93309.50;;;15.95;79.33
10462;BME280;5278;42.656;23.374;2022-11-18T11:55:05;93316.75;;;15.88;80.55
10462;BME280;5278;42.656;23.374;2022-11-18T11:57:42;93316.41;;;15.84;81.43
10462;BME280;5278;42.656;23.374;2022-11-18T12:00:17;93307.53;;;15.85;81.82
10462;BME280;5278;42.656;23.374;2022-11-18T12:02:57;93302.63;;;15.72;82.49
10462;BME280;5278;42.656;23.374;2022-11-18T12:05:30;93297.06;;;15.52;83.80
10462;BME280;5278;42.656;23.374;2022-11-18T12:08:01;93293.94;;;15.38;84.16
10462;BME280;5278;42.656;23.374;2022-11-18T12:10:37;93310.91;;;15.36;84.46
10462;BME280;5278;42.656;23.374;2022-11-18T12:13:32;93303.28;;;15.34;84.53
10462;BME280;5278;42.656;23.374;2022-11-18T12:16:13;93298.69;;;15.41;84.02
10462;BME280;5278;42.656;23.374;2022-11-18T12:18:47;93291.47;;;15.32;84.28
10462;BME280;5278;42.656;23.374;2022-11-18T12:21:55;93314.09;;;15.38;85.15
10462;BME280;5278;42.656;23.374;2022-11-18T12:24:33;93296.94;;;15.30;85.41
10462;BME280;5278;42.656;23.374;2022-11-18T12:27:03;93284.78;;;15.24;85.10
10462;BME280;5278;42.656;23.374;2022-11-18T12:29:37;93284.19;;;15.34;85.11
10462;BME280;5278;42.656;23.374;2022-11-18T12:32:30;93264.59;;;15.36;84.42
10462;BME280;5278;42.656;23.374;2022-11-18T12:35:01;93270.47;;;15.43;83.86
10462;BME280;5278;42.656;23.374;2022-11-18T12:37:56;93274.44;;;15.46;83.40
10462;BME280;5278;42.656;23.374;2022-11-18T12:40:32;93278.81;;;15.57;83.27
10462;BME280;5278;42.656;23.374;2022-11-18T12:43:00;93224.16;;;15.27;83.41
10462;BME280;5278;42.656;23.374;2022-11-18T12:45:53;93280.56;;;15.68;83.89
10462;BME280;5278;42.656;23.374;2022-11-18T12:48:36;93281.28;;;15.80;83.89
10462;BME280;5278;42.656;23.374;2022-11-18T12:54:26;93241.31;;;15.52;83.44
10462;BME280;5278;42.656;23.374;2022-11-18T12:56:54;93205.91;;;15.32;83.47
10462;BME280;5278;42.656;23.374;2022-11-18T12:59:28;93236.22;;;15.62;83.59
10462;BME280;5278;42.656;23.374;2022-11-18T13:02:20;93229.25;;;15.67;83.82
10462;BME280;5278;42.656;23.374;2022-11-18T13:05:09;93238.75;;;15.73;83.11
10462;BME280;5278;42.656;23.374;2022-11-18T13:07:44;93234.13;;;15.80;82.51
10462;BME280;5278;42.656;23.374;2022-11-18T13:10:32;93226.34;;;15.85;81.66
10462;BME280;5278;42.656;23.374;2022-11-18T13:13:01;93216.66;;;15.86;80.23
10462;BME280;5278;42.656;23.374;2022-11-18T13:15:28;93213.09;;;15.92;80.70
10462;BME280;5278;42.656;23.374;2022-11-18T13:18:15;93237.25;;;15.99;80.47
10462;BME280;5278;42.656;23.374;2022-11-18T13:20:54;93216.38;;;16.04;79.42
10462;BME280;5278;42.656;23.374;2022-11-18T13:23:25;93191.53;;;16.07;72.02
10462;BME280;5278;42.656;23.374;2022-11-18T13:26:23;93184.44;;;16.29;69.64
10462;BME280;5278;42.656;23.374;2022-11-18T13:29:09;93173.59;;;16.42;65.82
10462;BME280;5278;42.656;23.374;2022-11-18T13:31:46;93191.41;;;16.62;66.01